SeattleWeather.com

KSEA - Seattle/Metro, Washington, USA
Distance from station: SSW 11mi, 18km
Updated: Mon, 26-Jul-2021 7:53pm PDT
Partly Cloudy
Partly Cloudy
 Wind from N
Wind: N 8 mph , 13 km/h
Temperature: 77°F , 25°C
Dew Point: 52°F , 11°C
Humidity: 42%
Barometer: 29.95 inHg , 1014.2 hPa
Clouds: Partly Cloudy
Visibility: 10 miles , 16 km
Cloud details: Few Clouds 5000 ft
Partly Cloudy 25000 ft
2021/07/27 02:53 KSEA 270253Z 35007KT 10SM FEW050 SCT250 25/11 A2995 RMK AO2 SLP146 T02500111 56005
KBFI - Seattle/Boeing, Washington, USA
Distance from station: SSW 2mi, 3km
Updated: Mon, 26-Jul-2021 7:53pm PDT
Clear
Clear
 Wind from calm
Wind: Calm
Temperature: 79°F , 26°C
Dew Point: 52°F , 11°C
Humidity: 39%
Barometer: 29.93 inHg , 1013.5 hPa
Clouds: Clear
Visibility: 10 miles , 16 km
2021/07/27 02:53 KBFI 270253Z 00000KT 10SM CLR 26/11 A2993 RMK AO2 SLP136 T02610111 55005
NWS Forecast for Seattle, WA
National Weather Service Forecast for: Seattle, WA
Issued by: National Weather Service Seattle/Tacoma, WA
Updated: Mon, 26-Jul-2021 3:57pm PDT
 
This
Afternoon
This Afternoon: Sunny
Sunny
Tuesday

Tuesday: Sunny
Sunny
Wednesday

Wednesday: Mostly Sunny
Mostly Sunny
Thursday

Thursday: Sunny
Sunny
Friday

Friday: Sunny
Sunny
Saturday

Saturday: Mostly Sunny
Mostly Sunny
Sunday

Sunday: Mostly Sunny
Mostly Sunny
 
Hi 79 °F Hi 79 °F Hi 81 °F Hi 84 °F Hi 84 °F Hi 83 °F Hi 79 °F  
 
Tonight

Tonight: Mostly Clear
Mostly Clear
Tuesday
Night
Tuesday Night: Partly Cloudy
Partly Cloudy
Wednesday
Night
Wednesday Night: Partly Cloudy
Partly Cloudy
Thursday
Night
Thursday Night: Mostly Clear
Mostly Clear
Friday
Night
Friday Night: Mostly Clear
Mostly Clear
Saturday
Night
Saturday Night: Partly Cloudy
Partly Cloudy
Sunday
Night
Sunday Night: Mostly Clear
Mostly Clear
 
Lo 59 °F Lo 58 °F Lo 61 °F Lo 61 °F Lo 63 °F Lo 62 °F Lo 59 °F  

 

This Afternoon
 
Sunny, with a high near 79. North northwest wind around 9 mph.
Tonight
 
Mostly clear, with a low around 59. North northeast wind 5 to 8 mph.
Tuesday
 
Sunny, with a high near 79. North northwest wind 3 to 9 mph.
Tuesday Night
 
Partly cloudy, with a low around 58. North northeast wind 3 to 8 mph.
Wednesday
 
Mostly sunny, with a high near 81. North northwest wind 3 to 9 mph.
Wednesday Night
 
Partly cloudy, with a low around 61.
Thursday
 
Sunny, with a high near 84.
Thursday Night
 
Mostly clear, with a low around 61.
Friday
 
Sunny, with a high near 84.
Friday Night
 
Mostly clear, with a low around 63.
Saturday
 
Mostly sunny, with a high near 83.
Saturday Night
 
Partly cloudy, with a low around 62.
Sunday
 
Mostly sunny, with a high near 79.
Sunday Night
 
Mostly clear, with a low around 59.

 

Forecast from NOAA-NWS for Seattle, WA.